createdAt,value
2019-01-18T00:02:24.519Z,4.97
2019-01-18T00:04:56.556Z,4.87
2019-01-18T00:07:28.558Z,4.33
2019-01-18T00:10:00.593Z,5.10
2019-01-18T00:12:32.597Z,4.27
2019-01-18T00:15:06.003Z,4.33
2019-01-18T00:17:37.979Z,5.00
2019-01-18T00:20:10.188Z,5.10
2019-01-18T00:22:42.185Z,4.60
2019-01-18T00:25:14.174Z,5.03
2019-01-18T00:27:46.156Z,4.60
2019-01-18T00:30:18.193Z,4.67
2019-01-18T00:32:50.269Z,4.90
2019-01-18T00:35:22.274Z,5.07
2019-01-18T00:37:54.215Z,4.87
2019-01-18T00:40:26.221Z,5.40
2019-01-18T00:42:58.183Z,5.17
2019-01-18T00:45:30.178Z,4.93
2019-01-18T00:48:02.139Z,5.70
2019-01-18T00:50:36.184Z,5.40
2019-01-18T00:53:08.142Z,5.67
2019-01-18T00:55:40.209Z,4.70
2019-01-18T00:58:12.186Z,4.73
2019-01-18T01:00:44.161Z,5.30
2019-01-18T01:03:16.140Z,5.07
2019-01-18T01:05:48.126Z,4.70
2019-01-18T01:08:20.106Z,4.53
2019-01-18T01:10:52.064Z,4.73
2019-01-18T01:16:02.791Z,4.87
2019-01-18T01:18:34.788Z,4.80
2019-01-18T01:21:06.752Z,4.27
2019-01-18T01:23:38.730Z,4.30
2019-01-18T01:26:10.685Z,4.83
2019-01-18T01:28:42.653Z,4.90
2019-01-18T01:31:14.617Z,4.60
2019-01-18T01:33:46.607Z,4.93
2019-01-18T01:36:18.566Z,4.23
2019-01-18T01:38:50.542Z,4.50
2019-01-18T01:41:22.524Z,4.40
2019-01-18T01:43:54.515Z,4.83
2019-01-18T01:46:46.027Z,4.83
2019-01-18T01:49:18.009Z,5.37
2019-01-18T01:51:49.966Z,5.13
2019-01-18T01:54:21.971Z,4.93
2019-01-18T01:56:53.953Z,5.37
2019-01-18T01:59:25.942Z,5.90
2019-01-18T02:01:57.948Z,4.90
2019-01-18T02:04:29.943Z,5.63
2019-01-18T02:07:01.892Z,5.50
2019-01-18T02:09:33.888Z,5.43
2019-01-18T02:12:05.847Z,4.90
2019-01-18T02:14:37.920Z,4.80
2019-01-18T02:17:09.873Z,5.10
2019-01-18T02:19:41.946Z,5.50
2019-01-18T02:22:13.920Z,5.07
2019-01-18T02:24:45.904Z,5.20
2019-01-18T02:27:17.867Z,5.20
2019-01-18T02:29:56.369Z,5.70
2019-01-18T02:32:23.767Z,5.30
2019-01-18T02:34:55.743Z,5.83
2019-01-18T02:37:27.680Z,5.17
2019-01-18T02:39:59.666Z,5.60
2019-01-18T02:42:31.705Z,5.30
2019-01-18T02:45:45.243Z,5.07
2019-01-18T02:48:17.170Z,5.30
2019-01-18T02:53:29.163Z,5.73
2019-01-18T02:56:01.158Z,5.50
2019-01-18T02:58:33.116Z,5.20
2019-01-18T03:01:05.100Z,5.93
2019-01-18T03:03:37.074Z,5.77
2019-01-18T03:06:09.053Z,5.70
2019-01-18T03:08:41.009Z,6.00
2019-01-18T03:11:13.015Z,5.50
2019-01-18T03:13:45.000Z,5.90
2019-01-18T03:16:16.966Z,5.93
2019-01-18T03:18:48.939Z,5.87
2019-01-18T03:21:20.885Z,5.80
2019-01-18T03:23:52.859Z,5.63
2019-01-18T03:26:24.807Z,5.90
2019-01-18T03:28:56.790Z,5.43
2019-01-18T03:31:28.744Z,5.43
2019-01-18T03:34:00.716Z,5.30
2019-01-18T03:36:32.659Z,5.03
2019-01-18T03:39:08.816Z,4.87
2019-01-18T03:41:40.773Z,5.23
2019-01-18T03:44:12.746Z,4.90
2019-01-18T03:46:44.816Z,5.20
2019-01-18T03:49:16.792Z,4.90
2019-01-18T03:51:48.745Z,5.47
2019-01-18T03:54:20.746Z,5.03
2019-01-18T03:56:52.697Z,4.80
2019-01-18T03:59:24.694Z,4.47
2019-01-18T04:01:56.648Z,4.57
2019-01-18T04:04:28.635Z,5.23
2019-01-18T04:07:00.593Z,4.23
2019-01-18T04:09:32.596Z,4.73
2019-01-18T04:12:04.562Z,4.80
2019-01-18T04:14:36.548Z,4.67
2019-01-18T04:17:08.503Z,4.73
2019-01-18T04:19:40.492Z,4.77
2019-01-18T04:22:12.454Z,5.00
2019-01-18T04:24:44.435Z,4.63
2019-01-18T04:27:16.385Z,4.97
2019-01-18T04:29:48.364Z,5.23
2019-01-18T04:32:20.323Z,5.47
2019-01-18T04:34:52.306Z,5.60
2019-01-18T04:37:24.269Z,5.20
2019-01-18T04:39:56.278Z,5.20
2019-01-18T04:42:28.242Z,5.20
2019-01-18T04:45:00.263Z,5.70
2019-01-18T04:47:32.180Z,5.27
2019-01-18T04:50:05.533Z,5.27
2019-01-18T04:52:37.490Z,4.90
2019-01-18T04:55:09.486Z,4.80
2019-01-18T04:57:41.441Z,5.90
2019-01-18T05:00:16.454Z,5.43
2019-01-18T05:02:48.448Z,5.20
2019-01-18T05:05:20.389Z,4.87
2019-01-18T05:07:52.386Z,5.17
2019-01-18T05:10:26.001Z,5.57
2019-01-18T05:12:58.374Z,5.23
2019-01-18T05:15:31.568Z,5.30
2019-01-18T05:18:03.559Z,5.30
2019-01-18T05:20:35.620Z,5.40
2019-01-18T05:23:07.620Z,5.47
2019-01-18T05:25:39.589Z,5.27
2019-01-18T05:28:11.581Z,5.60
2019-01-18T05:30:47.512Z,6.23
2019-01-18T05:33:17.433Z,5.20
2019-01-18T05:35:49.387Z,5.77
2019-01-18T05:38:21.390Z,5.33
2019-01-18T05:40:53.395Z,5.47
2019-01-18T05:43:25.392Z,5.87
2019-01-18T05:45:57.358Z,6.77
2019-01-18T05:48:29.369Z,5.87
2019-01-18T05:51:01.319Z,5.63
2019-01-18T05:53:33.304Z,6.10
2019-01-18T05:56:05.320Z,6.67
2019-01-18T05:58:37.282Z,6.63
2019-01-18T06:01:11.059Z,5.97
2019-01-18T06:03:43.053Z,6.53
2019-01-18T06:06:15.005Z,6.00
2019-01-18T06:08:47.035Z,5.33
2019-01-18T06:11:19.074Z,6.10
2019-01-18T06:13:51.087Z,5.87
2019-01-18T06:16:23.200Z,5.80
2019-01-18T06:18:55.190Z,6.07
2019-01-18T06:21:27.164Z,5.20
2019-01-18T06:23:59.191Z,5.93
2019-01-18T06:26:31.144Z,5.87
2019-01-18T06:29:03.118Z,6.17
2019-01-18T06:31:35.103Z,6.40
2019-01-18T06:34:07.067Z,5.83
2019-01-18T06:36:39.041Z,6.50
2019-01-18T06:39:11.027Z,5.97
2019-01-18T06:42:02.568Z,5.97
2019-01-18T06:44:34.550Z,6.30
2019-01-18T06:47:06.506Z,5.70
2019-01-18T06:49:38.475Z,6.30
2019-01-18T06:52:10.434Z,6.83
2019-01-18T06:54:42.448Z,5.63
2019-01-18T06:57:14.399Z,5.83
2019-01-18T06:59:46.380Z,6.10
2019-01-18T07:02:18.355Z,6.93
2019-01-18T07:04:50.374Z,7.23
2019-01-18T07:07:22.356Z,7.17
2019-01-18T07:09:54.334Z,7.10
2019-01-18T07:12:26.286Z,7.17
2019-01-18T07:14:58.284Z,6.93
2019-01-18T07:17:30.265Z,6.90
2019-01-18T07:20:02.361Z,6.40
2019-01-18T07:22:34.338Z,6.90
2019-01-18T07:25:09.656Z,7.00
2019-01-18T07:27:41.620Z,7.20
2019-01-18T07:30:34.330Z,7.13
2019-01-18T07:33:25.762Z,7.00
2019-01-18T07:36:00.516Z,6.30
2019-01-18T07:38:32.512Z,6.97
2019-01-18T07:41:04.490Z,8.00
2019-01-18T07:43:36.502Z,7.33
2019-01-18T07:46:08.459Z,8.37
2019-01-18T07:48:40.487Z,8.27
2019-01-18T07:51:12.500Z,8.57
2019-01-18T07:53:44.475Z,8.47
2019-01-18T07:56:16.491Z,9.20
2019-01-18T07:58:48.453Z,8.57
2019-01-18T08:01:22.151Z,7.93
2019-01-18T08:03:54.352Z,7.67
2019-01-18T08:06:26.361Z,9.57
2019-01-18T08:08:58.344Z,10.03
2019-01-18T08:11:30.463Z,9.30
2019-01-18T08:14:02.521Z,7.43
2019-01-18T08:16:34.540Z,6.93
2019-01-18T08:19:06.568Z,8.17
2019-01-18T08:21:38.559Z,8.03
2019-01-18T08:24:10.611Z,8.10
2019-01-18T08:26:50.032Z,7.77
2019-01-18T08:29:22.033Z,7.90
2019-01-18T08:31:54.046Z,8.23
2019-01-18T08:34:26.077Z,8.07
2019-01-18T08:36:58.076Z,7.73
2019-01-18T08:39:30.073Z,10.60
2019-01-18T08:42:02.066Z,14.33
2019-01-18T08:44:34.078Z,10.50
2019-01-18T08:47:06.080Z,8.77
2019-01-18T08:49:38.100Z,8.10
2019-01-18T08:52:10.091Z,8.27
2019-01-18T08:54:42.151Z,8.80
2019-01-18T08:57:14.165Z,8.17
2019-01-18T08:59:47.483Z,7.93
2019-01-18T09:02:20.071Z,8.37
2019-01-18T09:04:52.090Z,7.90
2019-01-18T09:07:24.118Z,9.30
2019-01-18T09:09:56.134Z,7.87
2019-01-18T09:12:28.114Z,8.33
2019-01-18T09:15:00.231Z,8.93
2019-01-18T09:17:32.182Z,7.90
2019-01-18T09:20:06.533Z,7.70
2019-01-18T09:22:38.488Z,7.73
2019-01-18T09:25:10.508Z,7.63
2019-01-18T09:27:42.459Z,8.20
2019-01-18T09:30:16.724Z,7.00
2019-01-18T09:32:49.286Z,7.20
2019-01-18T09:35:22.413Z,7.80
2019-01-18T09:37:55.887Z,8.70
2019-01-18T09:40:31.645Z,8.10
2019-01-18T09:43:03.999Z,7.60
2019-01-18T09:45:35.990Z,7.30
2019-01-18T09:48:09.251Z,7.63
2019-01-18T09:50:41.209Z,8.00
2019-01-18T09:53:13.181Z,7.93
2019-01-18T09:55:45.206Z,7.90
2019-01-18T09:58:17.179Z,7.90
2019-01-18T10:00:49.197Z,8.37
2019-01-18T10:03:21.161Z,8.27
2019-01-18T10:05:53.183Z,7.53
2019-01-18T10:08:25.170Z,7.60
2019-01-18T10:10:57.179Z,7.97
2019-01-18T10:13:29.130Z,8.80
2019-01-18T10:16:01.136Z,8.67
2019-01-18T10:18:33.112Z,8.70
2019-01-18T10:21:05.115Z,9.17
2019-01-18T10:23:37.105Z,8.90
2019-01-18T10:26:09.086Z,7.90
2019-01-18T10:28:41.091Z,8.63
2019-01-18T10:31:13.042Z,8.67
2019-01-18T10:33:45.063Z,8.67
2019-01-18T10:36:17.055Z,8.07
2019-01-18T10:38:49.056Z,9.00
2019-01-18T10:41:21.084Z,8.87
2019-01-18T10:43:53.079Z,9.10
2019-01-18T10:46:25.053Z,9.97
2019-01-18T10:48:57.043Z,9.53
2019-01-18T10:51:29.067Z,8.97
2019-01-18T10:54:01.069Z,9.60
2019-01-18T10:56:33.084Z,8.60
2019-01-18T10:59:05.084Z,9.20
2019-01-18T11:01:37.068Z,8.27
2019-01-18T11:04:09.075Z,8.73
2019-01-18T11:06:41.090Z,9.73
2019-01-18T11:09:13.089Z,9.00
2019-01-18T11:11:45.072Z,8.93
2019-01-18T11:14:17.067Z,9.07
2019-01-18T11:16:49.034Z,7.87
2019-01-18T11:19:21.074Z,8.80
2019-01-18T11:21:53.378Z,8.07
2019-01-18T11:24:25.737Z,8.03
2019-01-18T11:26:57.719Z,8.50
2019-01-18T11:29:29.693Z,8.20
2019-01-18T11:32:01.662Z,7.97
2019-01-18T11:34:33.790Z,8.73
2019-01-18T11:37:05.802Z,8.50
2019-01-18T11:39:37.801Z,8.20
2019-01-18T11:42:09.803Z,8.63
2019-01-18T11:44:41.780Z,8.43
2019-01-18T11:47:13.764Z,8.33
2019-01-18T11:49:45.781Z,8.60
2019-01-18T11:52:17.760Z,8.40
2019-01-18T11:54:49.804Z,8.00
2019-01-18T11:57:21.816Z,6.43
2019-01-18T11:59:53.810Z,6.90
2019-01-18T12:02:25.823Z,7.23
2019-01-18T12:04:57.847Z,7.33
2019-01-18T12:07:29.873Z,7.00
2019-01-18T12:10:01.895Z,7.77
2019-01-18T12:12:33.849Z,6.40
2019-01-18T12:15:07.144Z,6.27
2019-01-18T12:17:39.244Z,7.10
2019-01-18T12:20:14.274Z,7.47
2019-01-18T12:22:46.257Z,7.03
2019-01-18T12:25:18.317Z,7.30
2019-01-18T12:27:50.345Z,5.77
2019-01-18T12:30:25.285Z,10.20
2019-01-18T12:32:57.307Z,6.30
2019-01-18T12:35:29.322Z,6.23
2019-01-18T12:38:01.310Z,5.63
2019-01-18T12:40:33.418Z,5.60
2019-01-18T12:43:05.429Z,5.53
2019-01-18T12:45:37.395Z,5.67
2019-01-18T12:48:09.383Z,5.73
2019-01-18T12:50:41.409Z,5.33
2019-01-18T12:53:13.427Z,5.67
2019-01-18T12:55:45.439Z,6.10
2019-01-18T12:58:17.465Z,6.33
2019-01-18T13:00:49.463Z,6.80
2019-01-18T13:03:21.463Z,7.20
2019-01-18T13:05:54.078Z,7.40
2019-01-18T13:08:26.384Z,5.90
2019-01-18T13:10:58.368Z,6.93
2019-01-18T13:13:30.364Z,6.77
2019-01-18T13:16:32.064Z,6.70
2019-01-18T13:19:10.089Z,6.70
2019-01-18T13:21:42.094Z,7.23
2019-01-18T13:24:14.205Z,9.23
2019-01-18T13:26:46.203Z,7.50
2019-01-18T13:29:18.166Z,7.20
2019-01-18T13:31:50.186Z,7.37
2019-01-18T13:34:22.182Z,7.67
2019-01-18T13:36:54.179Z,7.33
2019-01-18T13:39:26.179Z,7.67
2019-01-18T13:41:58.152Z,7.87
2019-01-18T13:44:30.176Z,7.07
2019-01-18T13:47:02.186Z,8.27
2019-01-18T13:49:34.212Z,7.13
2019-01-18T13:52:06.247Z,7.33
2019-01-18T13:54:38.266Z,7.57
2019-01-18T13:57:12.306Z,7.83
2019-01-18T13:59:44.158Z,6.47
2019-01-18T14:02:16.139Z,6.10
2019-01-18T14:04:48.163Z,6.27
2019-01-18T14:07:20.260Z,6.20
2019-01-18T14:09:52.289Z,6.00
2019-01-18T14:12:24.283Z,6.40
2019-01-18T14:14:56.326Z,7.10
2019-01-18T14:17:28.455Z,7.53
2019-01-18T14:20:00.554Z,6.83
2019-01-18T14:22:32.589Z,6.03
2019-01-18T14:25:04.922Z,6.50
2019-01-18T14:27:36.960Z,6.40
2019-01-18T14:30:12.751Z,8.10
2019-01-18T14:32:44.780Z,7.23
2019-01-18T14:35:16.760Z,6.27
2019-01-18T14:37:48.895Z,6.53
2019-01-18T14:40:21.003Z,6.53
2019-01-18T14:42:53.042Z,6.43
2019-01-18T14:45:36.472Z,6.60
2019-01-18T14:48:08.515Z,7.30
2019-01-18T14:50:40.516Z,8.33
2019-01-18T14:53:12.557Z,7.57
2019-01-18T14:55:44.653Z,7.57
2019-01-18T14:58:16.683Z,8.63
2019-01-18T15:00:48.705Z,8.00
2019-01-18T15:03:20.845Z,8.43
2019-01-18T15:05:52.844Z,7.40
2019-01-18T15:08:24.872Z,7.30
2019-01-18T15:10:56.964Z,8.00
2019-01-18T15:13:29.090Z,8.60
2019-01-18T15:16:01.159Z,9.77
2019-01-18T15:18:34.501Z,8.97
2019-01-18T15:21:06.538Z,8.03
2019-01-18T15:23:38.581Z,6.97
2019-01-18T15:26:10.611Z,6.43
2019-01-18T15:28:42.649Z,5.83
2019-01-18T15:31:14.705Z,7.30
2019-01-18T15:33:46.772Z,6.43
2019-01-18T15:36:18.773Z,5.17
2019-01-18T15:38:50.809Z,5.73
2019-01-18T15:41:22.820Z,5.70
2019-01-18T15:43:54.867Z,6.90
2019-01-18T15:46:26.984Z,6.67
2019-01-18T15:48:59.052Z,6.37
2019-01-18T15:51:31.060Z,7.17
2019-01-18T15:54:03.422Z,6.67
2019-01-18T15:56:35.430Z,6.53
2019-01-18T15:59:07.480Z,7.73
2019-01-18T16:01:39.502Z,8.80
2019-01-18T16:04:11.503Z,8.60
2019-01-18T16:06:43.512Z,8.70
2019-01-18T16:09:15.559Z,8.53
2019-01-18T16:11:47.581Z,8.70
2019-01-18T16:14:19.631Z,8.47
2019-01-18T16:16:59.047Z,7.60
2019-01-18T16:19:31.071Z,7.43
2019-01-18T16:22:03.200Z,7.00
2019-01-18T16:24:35.228Z,8.13
2019-01-18T16:27:07.277Z,7.70
2019-01-18T16:29:39.410Z,7.03
2019-01-18T16:32:11.416Z,8.30
2019-01-18T16:34:43.507Z,6.43
2019-01-18T16:37:15.563Z,6.10
2019-01-18T16:39:47.602Z,8.17
2019-01-18T16:42:20.757Z,8.17
2019-01-18T16:44:53.434Z,10.53
2019-01-18T16:47:25.480Z,9.23
2019-01-18T16:49:57.558Z,8.97
2019-01-18T16:52:29.588Z,8.40
2019-01-18T16:55:01.681Z,7.80
2019-01-18T16:57:33.710Z,9.13
2019-01-18T17:00:14.337Z,8.73
2019-01-18T17:02:46.371Z,7.73
2019-01-18T17:05:18.430Z,8.70
2019-01-18T17:07:50.498Z,7.10
2019-01-18T17:10:22.544Z,8.40
2019-01-18T17:12:54.572Z,7.60
2019-01-18T17:15:26.607Z,8.03
2019-01-18T17:17:58.668Z,7.77
2019-01-18T17:20:32.524Z,8.70
2019-01-18T17:23:04.566Z,10.00
2019-01-18T17:25:36.605Z,8.83
2019-01-18T17:28:08.794Z,7.93
2019-01-18T17:30:40.824Z,8.63
2019-01-18T17:33:12.876Z,11.63
2019-01-18T17:35:59.049Z,10.17
2019-01-18T17:39:06.130Z,7.53
2019-01-18T17:42:35.065Z,8.67
2019-01-18T17:45:37.381Z,8.93
2019-01-18T17:48:35.046Z,9.03
2019-01-18T17:51:32.103Z,10.40
2019-01-18T17:54:50.992Z,10.23
2019-01-18T17:58:15.749Z,10.70
2019-01-18T18:01:50.771Z,10.43
2019-01-18T18:05:13.389Z,11.30
2019-01-18T18:08:11.214Z,11.50
2019-01-18T18:11:39.950Z,11.90
2019-01-18T18:14:54.000Z,11.43
2019-01-18T18:18:10.940Z,10.80
2019-01-18T18:21:09.087Z,11.10
2019-01-18T18:24:13.171Z,13.67
2019-01-18T18:27:45.023Z,12.67
2019-01-18T18:30:24.517Z,12.57
2019-01-18T18:33:43.292Z,14.07
2019-01-18T18:36:51.464Z,14.30
2019-01-18T18:39:52.454Z,14.23
2019-01-18T18:43:08.571Z,15.33
2019-01-18T18:46:30.767Z,14.70
2019-01-18T18:49:31.610Z,14.90
2019-01-18T18:52:38.784Z,14.20
2019-01-18T18:55:55.613Z,13.90
2019-01-18T18:59:21.044Z,14.37
2019-01-18T19:02:19.362Z,13.73
2019-01-18T19:05:28.956Z,14.97
2019-01-18T19:08:46.210Z,14.53
2019-01-18T19:11:46.501Z,15.60
2019-01-18T19:14:47.603Z,17.03
2019-01-18T19:18:00.538Z,16.37
2019-01-18T19:20:58.252Z,15.43
2019-01-18T19:23:56.547Z,17.27
2019-01-18T19:27:15.609Z,23.40
2019-01-18T19:30:09.431Z,19.07
2019-01-18T19:33:15.096Z,16.27
2019-01-18T19:36:34.005Z,17.43
2019-01-18T19:39:33.001Z,15.70
2019-01-18T19:42:37.128Z,16.47
2019-01-18T19:45:39.518Z,16.67
2019-01-18T19:48:34.577Z,18.67
2019-01-18T19:51:51.439Z,16.90
2019-01-18T19:54:37.077Z,17.00
2019-01-18T19:57:27.630Z,17.57
2019-01-18T20:00:32.027Z,18.03
2019-01-18T20:03:43.060Z,18.33
2019-01-18T20:06:42.329Z,16.77
2019-01-18T20:09:28.611Z,19.73
2019-01-18T20:12:51.195Z,19.67
2019-01-18T20:15:42.667Z,19.80
2019-01-18T20:19:07.989Z,18.37
2019-01-18T20:21:50.865Z,19.83
2019-01-18T20:24:55.348Z,18.83
2019-01-18T20:27:53.778Z,20.83
2019-01-18T20:31:03.718Z,20.20
2019-01-18T20:34:30.294Z,18.43
2019-01-18T20:37:43.981Z,19.73
2019-01-18T20:40:44.077Z,18.63
2019-01-18T20:44:00.848Z,19.70
2019-01-18T20:47:29.105Z,20.87
2019-01-18T20:50:40.385Z,21.33
2019-01-18T20:53:56.360Z,21.20
2019-01-18T20:57:07.114Z,19.97
2019-01-18T21:00:32.798Z,19.43
2019-01-18T21:03:30.003Z,18.60
2019-01-18T21:06:40.491Z,19.10
2019-01-18T21:09:45.208Z,20.10
2019-01-18T21:13:01.536Z,21.47
2019-01-18T21:16:24.147Z,20.23
2019-01-18T21:19:21.300Z,17.87
2019-01-18T21:22:44.100Z,19.53
2019-01-18T21:25:41.456Z,20.77
2019-01-18T21:28:54.016Z,19.57
2019-01-18T21:32:26.053Z,19.67
2019-01-18T21:35:38.252Z,22.03
2019-01-18T21:38:44.090Z,22.50
2019-01-18T21:42:06.918Z,23.30
2019-01-18T21:45:08.237Z,21.00
2019-01-18T21:48:08.996Z,20.90
2019-01-18T21:51:15.647Z,21.30
2019-01-18T21:54:24.601Z,20.40
2019-01-18T21:57:35.771Z,20.20
2019-01-18T22:00:49.471Z,19.90
2019-01-18T22:03:39.091Z,19.90
2019-01-18T22:06:40.737Z,20.73
2019-01-18T22:10:21.859Z,20.50
2019-01-18T22:13:09.594Z,20.20
2019-01-18T22:16:26.263Z,18.27
2019-01-18T22:19:38.887Z,20.70
2019-01-18T22:22:52.168Z,19.47
2019-01-18T22:26:01.764Z,19.83
2019-01-18T22:29:19.657Z,20.37
2019-01-18T22:32:11.536Z,19.90
2019-01-18T22:34:53.360Z,19.10
2019-01-18T22:37:56.506Z,17.77
2019-01-18T22:41:23.271Z,19.43
2019-01-18T22:44:54.987Z,19.50
2019-01-18T22:47:59.441Z,19.00
2019-01-18T22:51:16.637Z,18.10
2019-01-18T22:54:22.252Z,18.77
2019-01-18T22:57:29.231Z,19.93
2019-01-18T23:01:17.700Z,20.60
2019-01-18T23:04:30.525Z,20.03
2019-01-18T23:07:53.196Z,21.57
2019-01-18T23:11:10.022Z,22.00
2019-01-18T23:14:27.334Z,20.40
2019-01-18T23:17:25.322Z,20.67
2019-01-18T23:20:30.941Z,21.57
2019-01-18T23:23:45.718Z,23.37
2019-01-18T23:27:01.951Z,21.50
2019-01-18T23:29:58.077Z,19.00
2019-01-18T23:32:55.621Z,21.37
2019-01-18T23:35:46.675Z,21.37
2019-01-18T23:38:54.773Z,21.47
2019-01-18T23:41:44.749Z,20.60
2019-01-18T23:44:48.321Z,19.90
2019-01-18T23:47:42.067Z,18.97
2019-01-18T23:50:43.166Z,20.47
2019-01-18T23:53:49.674Z,20.80
2019-01-18T23:56:59.798Z,19.43
